Time;durP1;ratioP1;P1;durP2;ratioP2;P2;SDS_P1;SDS_P2;PMS_P1;PMS_P2;Temp;Humidity;BMP_temperature;BMP_pressure;BME280_temperature;BME280_humidity;BME280_pressure;Samples;Min_cycle;Max_cycle;Signal;HPM_P1;HPM_P2
2023/12/20 00:01:55;;;;;;;0.60;0.30;;;24.60;37.50;;;;;;5118349;28;20547;-35
2023/12/20 00:04:21;;;;;;;0.50;0.30;;;24.60;37.70;;;;;;5116978;28;20141;-35
2023/12/20 00:06:48;;;;;;;0.63;0.45;;;24.60;37.10;;;;;;5115008;28;20012;-35
2023/12/20 00:09:14;;;;;;;0.50;0.50;;;24.80;36.80;;;;;;5114687;28;20026;-35
2023/12/20 00:11:42;;;;;;;0.55;0.32;;;24.80;36.60;;;;;;5119042;28;20031;-35
2023/12/20 00:14:08;;;;;;;0.30;0.20;;;24.90;36.90;;;;;;5115828;28;20033;-35
2023/12/20 00:16:34;;;;;;;0.40;0.32;;;24.80;37.10;;;;;;5110868;28;20035;-35
2023/12/20 00:19:00;;;;;;;0.25;0.25;;;24.80;37.10;;;;;;5115191;28;20031;-35
2023/12/20 00:21:27;;;;;;;0.30;0.30;;;24.90;36.60;;;;;;5112772;28;20111;-35
2023/12/20 00:23:53;;;;;;;0.50;0.30;;;25.00;36.80;;;;;;5115490;28;20118;-35
2023/12/20 00:26:19;;;;;;;0.85;0.28;;;25.00;36.30;;;;;;5110571;28;20052;-35
2023/12/20 00:28:45;;;;;;;0.45;0.40;;;25.00;36.60;;;;;;5095197;28;20057;-35
2023/12/20 00:31:11;;;;;;;0.80;0.40;;;25.00;36.80;;;;;;5114027;27;20020;-35
2023/12/20 00:33:39;;;;;;;0.43;0.40;;;25.00;37.00;;;;;;5113642;28;20034;-35
2023/12/20 00:36:06;;;;;;;0.77;0.35;;;25.20;36.50;;;;;;5124673;27;20027;-34
2023/12/20 00:38:32;;;;;;;1.02;0.40;;;25.20;36.50;;;;;;5102622;28;20027;-35
2023/12/20 00:40:58;;;;;;;0.75;0.40;;;25.30;37.00;;;;;;5115486;27;20357;-34
2023/12/20 00:43:24;;;;;;;0.40;0.40;;;25.10;37.40;;;;;;5118356;27;20111;-34
2023/12/20 00:45:50;;;;;;;1.75;0.30;;;25.00;37.00;;;;;;5113283;28;20055;-35
2023/12/20 00:48:16;;;;;;;0.32;0.32;;;25.00;36.90;;;;;;5116984;28;20050;-34
2023/12/20 00:50:42;;;;;;;0.40;0.40;;;24.90;37.40;;;;;;5117729;28;20024;-35
2023/12/20 00:53:08;;;;;;;0.80;0.30;;;24.80;37.50;;;;;;5119564;28;20743;-34
2023/12/20 00:55:35;;;;;;;0.63;0.40;;;24.80;37.20;;;;;;5116777;28;20028;-35
2023/12/20 00:58:01;;;;;;;1.80;0.40;;;24.60;37.10;;;;;;5113014;28;20032;-35
2023/12/20 01:00:27;;;;;;;0.75;0.50;;;24.40;37.30;;;;;;5114149;28;20039;-35
2023/12/20 01:02:53;;;;;;;0.40;0.30;;;24.30;37.50;;;;;;5115910;28;20028;-34
2023/12/20 01:05:22;;;;;;;0.98;0.38;;;24.30;37.80;;;;;;5125170;28;20066;-35
2023/12/20 01:07:49;;;;;;;1.63;0.50;;;24.30;37.60;;;;;;5122339;28;20526;-35
2023/12/20 01:10:40;;;;;;;0.53;0.40;;;24.30;37.40;;;;;;5107365;28;20389;-35
2023/12/20 01:13:06;;;;;;;0.85;0.50;;;24.00;37.50;;;;;;5117532;28;20275;-35
2023/12/20 01:15:33;;;;;;;0.40;0.40;;;23.90;37.70;;;;;;5116985;28;20032;-35
2023/12/20 01:17:59;;;;;;;0.45;0.40;;;23.80;38.20;;;;;;5117977;28;20020;-34
2023/12/20 01:20:25;;;;;;;0.60;0.40;;;23.90;38.20;;;;;;5115989;28;20051;-35
2023/12/20 01:22:51;;;;;;;2.35;0.50;;;23.80;37.60;;;;;;5107876;28;20055;-35
2023/12/20 01:25:17;;;;;;;0.95;0.50;;;23.70;37.90;;;;;;5111857;28;20284;-35
2023/12/20 01:27:44;;;;;;;0.80;0.47;;;23.60;38.00;;;;;;5114765;28;20055;-38
2023/12/20 01:30:10;;;;;;;1.23;0.60;;;23.50;38.20;;;;;;5102204;28;20019;-35
2023/12/20 01:32:36;;;;;;;1.30;0.40;;;23.50;38.50;;;;;;5114154;28;20047;-35
2023/12/20 01:35:02;;;;;;;1.58;0.63;;;23.50;38.40;;;;;;5108616;28;20044;-35
2023/12/20 01:37:29;;;;;;;1.20;0.57;;;23.50;38.20;;;;;;5120505;28;20027;-35
2023/12/20 01:39:55;;;;;;;1.33;0.70;;;23.40;38.10;;;;;;5109685;27;20483;-37
2023/12/20 01:42:22;;;;;;;3.05;0.50;;;23.30;38.20;;;;;;5110814;28;20047;-35
2023/12/20 01:44:48;;;;;;;0.75;0.57;;;23.20;38.10;;;;;;5110776;27;20032;-35
2023/12/20 01:47:14;;;;;;;1.92;0.60;;;23.20;38.10;;;;;;5116651;27;20031;-35
2023/12/20 01:49:40;;;;;;;1.20;0.50;;;23.20;38.50;;;;;;5114958;28;20027;-35
2023/12/20 01:52:07;;;;;;;1.73;0.70;;;23.20;38.10;;;;;;5113959;28;20023;-39
2023/12/20 01:54:33;;;;;;;1.15;0.50;;;23.10;38.30;;;;;;5109758;28;20043;-35
2023/12/20 01:56:59;;;;;;;0.50;0.45;;;23.10;38.60;;;;;;5096006;28;20031;-35
2023/12/20 01:59:25;;;;;;;0.90;0.55;;;23.10;38.60;;;;;;5113199;28;20035;-35
2023/12/20 02:01:51;;;;;;;1.35;0.70;;;23.00;38.60;;;;;;5111870;27;20024;-35
2023/12/20 02:04:37;;;;;;;2.20;0.60;;;23.10;38.70;;;;;;5093124;28;20221;-35
2023/12/20 02:07:03;;;;;;;1.25;0.70;;;23.10;38.80;;;;;;5095838;28;20055;-36
2023/12/20 02:09:30;;;;;;;3.10;0.60;;;23.00;38.70;;;;;;5100919;28;20044;-36
2023/12/20 02:11:56;;;;;;;1.52;0.47;;;23.00;38.80;;;;;;5095119;28;20032;-33
2023/12/20 02:14:22;;;;;;;2.13;0.55;;;23.10;38.60;;;;;;5100314;28;20040;-34
2023/12/20 02:16:48;;;;;;;1.07;0.83;;;23.10;38.80;;;;;;5098477;28;20032;-33
2023/12/20 02:19:15;;;;;;;1.10;0.70;;;23.10;38.80;;;;;;5099442;28;20288;-33
2023/12/20 02:22:01;;;;;;;0.77;0.60;;;23.00;38.80;;;;;;5094230;28;20032;-33
2023/12/20 02:24:27;;;;;;;1.00;0.68;;;22.80;39.00;;;;;;5039042;28;20929;-34
2023/12/20 02:26:54;;;;;;;1.58;0.80;;;22.70;39.20;;;;;;5039833;28;20056;-34
2023/12/20 02:29:20;;;;;;;1.58;0.52;;;22.70;39.40;;;;;;5033156;28;20033;-34
2023/12/20 02:31:46;;;;;;;0.90;0.60;;;22.70;39.20;;;;;;5038123;28;21073;-34
2023/12/20 02:34:12;;;;;;;2.60;0.80;;;22.70;39.10;;;;;;5035351;28;20049;-34
2023/12/20 02:36:38;;;;;;;0.90;0.60;;;22.60;39.20;;;;;;5037055;28;20105;-33
2023/12/20 02:39:04;;;;;;;1.58;0.70;;;22.50;39.40;;;;;;5020821;28;20026;-34
2023/12/20 02:41:30;;;;;;;2.63;0.80;;;22.40;39.60;;;;;;5030180;28;20033;-34
2023/12/20 02:43:56;;;;;;;0.88;0.70;;;22.40;39.80;;;;;;5019762;28;20134;-34
2023/12/20 02:46:23;;;;;;;1.95;0.80;;;22.40;39.70;;;;;;5018827;28;20037;-34
2023/12/20 02:48:49;;;;;;;1.00;0.70;;;22.40;39.40;;;;;;5007436;28;20505;-34
2023/12/20 02:51:15;;;;;;;1.02;0.75;;;22.50;39.40;;;;;;5017897;28;20034;-33
2023/12/20 02:53:41;;;;;;;0.90;0.57;;;22.60;39.30;;;;;;5018664;28;20037;-34
2023/12/20 02:56:07;;;;;;;1.10;0.60;;;22.70;39.40;;;;;;5017409;28;20042;-33
2023/12/20 02:58:33;;;;;;;1.00;0.70;;;22.80;39.20;;;;;;5018273;28;20034;-34
2023/12/20 03:01:01;;;;;;;2.05;0.85;;;22.80;39.60;;;;;;5047449;28;20139;-34
2023/12/20 03:03:28;;;;;;;1.83;0.80;;;22.70;39.90;;;;;;5119727;28;20023;-34
2023/12/20 03:05:54;;;;;;;1.42;0.98;;;22.60;40.00;;;;;;5120549;28;20028;-34
2023/12/20 03:08:20;;;;;;;2.15;0.80;;;22.50;40.10;;;;;;5115389;28;20055;-34
2023/12/20 03:10:46;;;;;;;0.73;0.50;;;22.40;40.40;;;;;;5118362;28;20057;-34
2023/12/20 03:13:12;;;;;;;1.02;0.88;;;22.40;40.20;;;;;;5117465;28;20024;-34
2023/12/20 03:15:39;;;;;;;0.90;0.70;;;22.40;39.90;;;;;;5118021;28;20038;-34
2023/12/20 03:18:05;;;;;;;2.20;0.82;;;22.50;39.80;;;;;;5110189;28;20020;-34
2023/12/20 03:20:33;;;;;;;1.27;0.98;;;22.40;39.60;;;;;;5112439;28;20031;-34
2023/12/20 03:23:03;;;;;;;1.00;0.70;;;22.30;39.70;;;;;;5114823;28;20016;-33
2023/12/20 03:25:29;;;;;;;1.35;0.88;;;22.30;40.00;;;;;;5113274;27;20034;-34
2023/12/20 03:27:55;;;;;;;1.55;0.85;;;22.30;39.90;;;;;;5114151;28;20023;-34
2023/12/20 03:30:21;;;;;;;1.45;0.80;;;22.30;39.70;;;;;;5116353;28;20021;-34
2023/12/20 03:32:47;;;;;;;1.27;0.80;;;22.20;39.80;;;;;;5118893;27;20035;-34
2023/12/20 03:35:14;;;;;;;2.20;0.80;;;22.10;39.80;;;;;;5099119;28;20044;-33
2023/12/20 03:37:40;;;;;;;0.95;0.60;;;22.10;39.70;;;;;;5117682;28;20051;-33
2023/12/20 03:40:06;;;;;;;0.95;0.80;;;22.40;39.50;;;;;;5116596;28;20031;-33
2023/12/20 03:42:32;;;;;;;2.22;0.90;;;22.40;39.50;;;;;;5118836;27;20045;-34
2023/12/20 03:44:59;;;;;;;1.40;0.80;;;22.40;39.70;;;;;;5118721;28;20066;-34
2023/12/20 03:47:27;;;;;;;0.75;0.75;;;22.30;39.90;;;;;;5115433;28;20028;-34
2023/12/20 03:49:53;;;;;;;1.60;0.90;;;22.10;39.90;;;;;;5120456;28;20035;-34
2023/12/20 03:52:20;;;;;;;0.88;0.80;;;22.10;40.20;;;;;;5116611;28;20031;-33
2023/12/20 03:54:46;;;;;;;1.33;0.73;;;22.10;40.20;;;;;;5115946;28;20050;-33
2023/12/20 03:57:12;;;;;;;1.73;0.70;;;22.10;40.20;;;;;;5115857;28;20024;-33
2023/12/20 03:59:38;;;;;;;1.10;0.70;;;22.00;40.20;;;;;;5117474;28;20036;-34
2023/12/20 04:02:05;;;;;;;3.67;0.80;;;21.90;40.40;;;;;;5116732;28;20028;-33
2023/12/20 04:04:31;;;;;;;1.20;0.93;;;21.80;40.60;;;;;;5114667;28;20288;-33
2023/12/20 04:06:57;;;;;;;1.35;0.90;;;21.90;40.60;;;;;;5118976;27;20034;-33
2023/12/20 04:09:23;;;;;;;1.20;0.80;;;21.90;40.40;;;;;;5117883;28;20035;-34
2023/12/20 04:11:49;;;;;;;1.45;0.80;;;22.00;40.30;;;;;;5097246;28;20024;-33
2023/12/20 04:14:15;;;;;;;1.27;0.80;;;22.10;40.10;;;;;;5114304;28;20756;-33
2023/12/20 04:16:42;;;;;;;1.50;0.98;;;22.20;40.00;;;;;;5117549;28;20028;-33
2023/12/20 04:19:08;;;;;;;1.80;0.93;;;22.30;39.90;;;;;;5118933;28;20027;-35
2023/12/20 04:21:34;;;;;;;1.10;0.80;;;22.40;39.60;;;;;;5118715;28;20053;-34
2023/12/20 04:24:00;;;;;;;1.40;0.98;;;22.40;40.50;;;;;;5115600;28;20028;-34
2023/12/20 04:26:27;;;;;;;0.95;0.70;;;22.30;39.80;;;;;;5117904;28;20038;-34
2023/12/20 04:28:53;;;;;;;0.95;0.85;;;22.20;40.00;;;;;;5114293;28;20032;-34
2023/12/20 04:31:19;;;;;;;0.95;0.85;;;22.10;40.30;;;;;;5115038;28;20108;-34
2023/12/20 04:33:45;;;;;;;1.23;0.90;;;22.00;40.60;;;;;;5117037;28;20035;-34
2023/12/20 04:36:11;;;;;;;1.52;1.00;;;22.00;40.40;;;;;;5113654;28;20035;-34
2023/12/20 04:38:37;;;;;;;0.98;0.85;;;22.00;40.30;;;;;;5113105;28;20031;-34
2023/12/20 04:41:04;;;;;;;1.23;1.00;;;22.00;40.30;;;;;;5121587;28;20024;-34
2023/12/20 04:43:30;;;;;;;1.10;0.90;;;21.90;40.20;;;;;;5118165;28;20031;-33
2023/12/20 04:45:56;;;;;;;1.38;1.00;;;21.80;40.40;;;;;;5119343;28;20039;-34
2023/12/20 04:48:23;;;;;;;1.40;1.00;;;21.70;40.60;;;;;;5116178;28;20063;-34
2023/12/20 04:50:49;;;;;;;0.95;0.70;;;21.70;40.50;;;;;;5116164;28;20039;-34
2023/12/20 04:53:15;;;;;;;1.13;0.90;;;21.80;40.60;;;;;;5117692;28;20029;-34
2023/12/20 04:55:41;;;;;;;1.27;1.00;;;21.80;41.20;;;;;;5117414;28;20065;-34
2023/12/20 04:58:08;;;;;;;1.00;0.80;;;21.90;40.60;;;;;;5116691;28;20547;-34
2023/12/20 05:00:34;;;;;;;1.25;0.90;;;22.00;40.40;;;;;;5115234;28;20119;-34
2023/12/20 05:03:00;;;;;;;1.30;0.85;;;22.10;40.30;;;;;;5117032;28;20050;-34
2023/12/20 05:05:26;;;;;;;1.42;0.95;;;22.20;39.90;;;;;;5118509;28;20030;-34
2023/12/20 05:07:52;;;;;;;1.20;0.80;;;22.20;40.10;;;;;;5118269;28;20036;-34
2023/12/20 05:10:19;;;;;;;1.37;1.00;;;22.20;40.00;;;;;;5117296;28;20024;-34
2023/12/20 05:12:45;;;;;;;2.03;0.90;;;22.10;40.10;;;;;;5116708;28;20276;-34
2023/12/20 05:15:11;;;;;;;1.45;0.90;;;22.00;40.30;;;;;;5115693;27;20066;-35
2023/12/20 05:17:37;;;;;;;1.25;0.88;;;21.90;40.60;;;;;;5119038;28;20051;-34
2023/12/20 05:20:03;;;;;;;1.58;1.00;;;21.90;40.40;;;;;;5122277;28;20055;-34
2023/12/20 05:22:29;;;;;;;1.47;1.13;;;21.90;40.30;;;;;;5123669;28;20039;-34
2023/12/20 05:24:56;;;;;;;1.38;1.00;;;21.90;40.30;;;;;;5117895;28;20287;-34
2023/12/20 05:27:22;;;;;;;2.65;0.80;;;21.80;40.20;;;;;;5119613;28;20023;-34
2023/12/20 05:29:48;;;;;;;2.33;1.10;;;21.70;40.40;;;;;;5123235;28;20035;-34
2023/12/20 05:32:14;;;;;;;1.23;0.80;;;21.60;40.30;;;;;;5120474;28;20471;-34
2023/12/20 05:34:40;;;;;;;2.15;1.10;;;21.80;40.00;;;;;;5101878;28;20038;-35
2023/12/20 05:37:06;;;;;;;1.30;0.80;;;21.90;39.70;;;;;;5120834;27;20028;-34
2023/12/20 05:39:33;;;;;;;3.67;0.73;;;22.00;39.60;;;;;;5118746;28;20034;-35
2023/12/20 05:41:59;;;;;;;1.38;0.85;;;22.10;40.00;;;;;;5119017;28;20079;-35
2023/12/20 05:44:26;;;;;;;1.40;0.90;;;22.00;40.20;;;;;;5103949;28;20038;-34
2023/12/20 05:46:52;;;;;;;3.65;1.10;;;21.90;40.40;;;;;;5119256;28;20036;-34
2023/12/20 05:49:18;;;;;;;2.78;0.88;;;21.80;40.50;;;;;;5118889;28;20051;-34
2023/12/20 05:51:44;;;;;;;3.42;1.20;;;21.80;40.40;;;;;;5119828;28;20027;-35
2023/12/20 05:54:10;;;;;;;1.98;1.00;;;21.80;40.30;;;;;;5120709;28;20057;-35
2023/12/20 05:56:36;;;;;;;3.20;0.85;;;21.80;41.00;;;;;;5120281;28;20023;-35
2023/12/20 05:59:03;;;;;;;1.35;1.00;;;21.60;40.50;;;;;;5113774;28;20031;-35
2023/12/20 06:01:29;;;;;;;2.58;1.08;;;21.50;40.80;;;;;;5119881;28;20043;-35
2023/12/20 06:03:55;;;;;;;1.63;1.10;;;21.60;40.90;;;;;;5114144;28;20019;-35
2023/12/20 06:06:21;;;;;;;3.08;1.00;;;21.60;40.60;;;;;;5120066;28;20024;-35
2023/12/20 06:08:47;;;;;;;1.23;0.98;;;21.80;40.30;;;;;;5121421;28;20753;-35
2023/12/20 06:11:14;;;;;;;1.33;1.02;;;21.90;40.30;;;;;;5118696;28;20032;-35
2023/12/20 06:13:40;;;;;;;1.85;1.13;;;22.00;40.30;;;;;;5101986;28;20100;-34
2023/12/20 06:16:07;;;;;;;1.45;1.02;;;22.10;40.10;;;;;;5119826;28;20046;-35
2023/12/20 06:18:33;;;;;;;3.17;1.02;;;22.20;39.90;;;;;;5118209;28;20475;-35
2023/12/20 06:20:59;;;;;;;1.50;0.90;;;22.30;40.10;;;;;;5119011;28;20040;-34
2023/12/20 06:23:27;;;;;;;1.30;1.02;;;22.20;40.10;;;;;;5115656;28;20043;-34
2023/12/20 06:25:53;;;;;;;1.42;1.20;;;22.00;40.30;;;;;;5117251;28;20036;-34
2023/12/20 06:28:19;;;;;;;1.63;1.20;;;21.90;40.50;;;;;;5119857;28;20020;-35
2023/12/20 06:30:49;;;;;;;2.45;1.10;;;21.80;40.80;;;;;;5116999;28;20071;-35
2023/12/20 06:33:15;;;;;;;1.90;1.17;;;21.80;40.70;;;;;;5115207;28;20111;-35
2023/12/20 06:35:41;;;;;;;2.00;1.10;;;21.90;40.50;;;;;;5117546;27;20040;-34
2023/12/20 06:38:08;;;;;;;1.55;1.08;;;21.90;40.40;;;;;;5116625;28;20126;-34
2023/12/20 06:40:35;;;;;;;1.30;1.00;;;21.80;40.40;;;;;;5117940;27;20817;-34
2023/12/20 06:43:01;;;;;;;1.60;1.13;;;21.70;40.60;;;;;;5118015;27;20035;-41
2023/12/20 06:45:27;;;;;;;2.28;0.90;;;21.60;40.90;;;;;;5114866;28;20031;-34
2023/12/20 06:47:54;;;;;;;1.42;1.00;;;21.60;40.70;;;;;;5117637;28;20047;-35
2023/12/20 06:50:21;;;;;;;1.27;0.85;;;21.70;40.50;;;;;;5132826;27;20030;-35
2023/12/20 06:52:47;;;;;;;1.30;1.07;;;21.80;40.60;;;;;;5118752;28;20087;-35
2023/12/20 06:55:32;;;;;;;1.45;0.90;;;22.00;40.40;;;;;;5110544;28;20035;-35
2023/12/20 06:57:58;;;;;;;1.70;1.00;;;22.00;40.40;;;;;;5115009;28;20111;-34
2023/12/20 07:00:24;;;;;;;1.25;1.10;;;22.10;40.10;;;;;;5121077;28;20024;-34
2023/12/20 07:02:50;;;;;;;1.27;1.00;;;22.30;39.90;;;;;;5120494;28;20031;-34
2023/12/20 07:05:19;;;;;;;1.35;0.98;;;22.30;40.10;;;;;;5119273;28;20028;-34
2023/12/20 07:07:46;;;;;;;1.65;1.23;;;22.20;39.90;;;;;;5121304;28;20091;-34
2023/12/20 07:10:13;;;;;;;1.88;1.15;;;22.10;40.10;;;;;;5118953;28;20027;-35
2023/12/20 07:12:39;;;;;;;2.10;0.85;;;21.90;40.20;;;;;;5119764;28;20027;-34
2023/12/20 07:15:07;;;;;;;1.40;0.98;;;21.90;40.40;;;;;;5114753;28;20057;-34
2023/12/20 07:17:34;;;;;;;1.17;1.00;;;21.90;40.30;;;;;;5115062;28;20392;-34
2023/12/20 07:20:03;;;;;;;1.77;1.25;;;21.90;40.10;;;;;;5115221;28;20038;-34
2023/12/20 07:22:33;;;;;;;1.63;1.15;;;21.90;40.00;;;;;;5114464;28;20043;-34
2023/12/20 07:25:00;;;;;;;1.30;1.20;;;21.80;40.20;;;;;;5120161;27;20032;-34
2023/12/20 07:27:26;;;;;;;1.85;1.08;;;21.70;40.30;;;;;;5117506;28;20388;-34
2023/12/20 07:29:52;;;;;;;2.00;1.20;;;21.70;40.40;;;;;;5118751;28;20027;-35
2023/12/20 07:32:19;;;;;;;1.73;1.30;;;21.70;40.30;;;;;;5099029;27;20023;-34
2023/12/20 07:34:45;;;;;;;1.10;1.00;;;21.70;40.10;;;;;;5120281;27;20043;-34
2023/12/20 07:37:11;;;;;;;2.40;1.40;;;21.80;40.00;;;;;;5117640;28;20128;-35
2023/12/20 07:39:41;;;;;;;1.73;1.20;;;21.80;39.90;;;;;;5117078;28;20024;-35
2023/12/20 07:42:08;;;;;;;1.85;1.20;;;22.00;39.80;;;;;;5113345;28;20044;-35
2023/12/20 07:44:35;;;;;;;1.23;1.00;;;22.10;39.60;;;;;;5115926;28;20031;-35
2023/12/20 07:47:02;;;;;;;1.67;1.25;;;22.30;39.30;;;;;;5117026;27;20036;-35
2023/12/20 07:49:28;;;;;;;1.63;1.10;;;22.20;39.60;;;;;;5117864;28;20069;-35
2023/12/20 07:51:54;;;;;;;1.38;1.20;;;22.10;39.60;;;;;;5119282;28;20032;-35
2023/12/20 07:54:20;;;;;;;1.83;1.23;;;21.90;39.80;;;;;;5117010;28;20043;-35
2023/12/20 07:56:49;;;;;;;1.42;1.20;;;21.80;40.10;;;;;;5118444;28;20134;-34
2023/12/20 07:59:16;;;;;;;3.83;1.25;;;21.80;40.10;;;;;;5117067;28;20050;-34
2023/12/20 08:01:42;;;;;;;1.90;1.30;;;21.90;40.00;;;;;;5098589;28;20558;-34
2023/12/20 08:04:08;;;;;;;2.10;1.53;;;21.90;39.90;;;;;;5117033;28;20031;-34
2023/12/20 08:06:34;;;;;;;1.77;1.50;;;21.80;39.90;;;;;;5119145;28;20275;-34
2023/12/20 08:09:01;;;;;;;2.17;1.63;;;21.70;40.10;;;;;;5117109;28;20028;-34
2023/12/20 08:11:27;;;;;;;1.85;1.55;;;21.60;40.20;;;;;;5115627;28;20051;-34
2023/12/20 08:13:53;;;;;;;2.00;1.30;;;21.60;40.20;;;;;;5117988;28;20038;-34
2023/12/20 08:16:19;;;;;;;2.35;1.50;;;21.70;39.80;;;;;;5116845;28;20032;-34
2023/12/20 08:18:45;;;;;;;2.40;1.48;;;21.90;39.70;;;;;;5116796;28;20023;-34
2023/12/20 08:21:12;;;;;;;1.67;1.30;;;21.90;39.70;;;;;;5117452;28;20042;-34
2023/12/20 08:23:38;;;;;;;1.73;1.40;;;21.80;39.90;;;;;;5118849;28;20095;-34
2023/12/20 08:26:07;;;;;;;1.90;1.30;;;21.70;40.10;;;;;;5116784;28;20092;-35
2023/12/20 08:28:34;;;;;;;2.10;1.65;;;21.70;40.40;;;;;;5118800;28;20045;-34
2023/12/20 08:31:00;;;;;;;1.95;1.48;;;21.70;40.30;;;;;;5118642;28;20035;-34
2023/12/20 08:33:26;;;;;;;2.40;1.60;;;21.70;40.20;;;;;;5117906;28;20106;-34
2023/12/20 08:35:52;;;;;;;1.70;1.40;;;21.60;40.10;;;;;;5120155;28;20067;-34
2023/12/20 08:38:18;;;;;;;2.20;1.65;;;21.50;40.20;;;;;;5119420;28;20357;-34
2023/12/20 08:40:45;;;;;;;1.80;1.40;;;21.40;40.50;;;;;;5119790;28;20027;-34
2023/12/20 08:43:11;;;;;;;2.10;1.60;;;21.50;40.20;;;;;;5121029;28;20023;-34
2023/12/20 08:45:38;;;;;;;1.65;1.40;;;21.60;39.90;;;;;;5119986;28;20015;-34
2023/12/20 08:48:05;;;;;;;2.35;1.65;;;21.90;39.50;;;;;;5117754;28;20047;-34
2023/12/20 08:50:31;;;;;;;2.40;1.60;;;21.80;39.70;;;;;;5120953;28;20028;-35
2023/12/20 08:52:57;;;;;;;2.30;1.70;;;21.70;39.80;;;;;;5123112;28;20035;-34
2023/12/20 08:55:23;;;;;;;1.88;1.50;;;21.60;40.00;;;;;;5123037;28;20055;-34
2023/12/20 08:57:50;;;;;;;4.32;1.63;;;21.50;40.20;;;;;;5121568;28;20027;-34
2023/12/20 09:00:17;;;;;;;2.00;1.40;;;21.60;40.10;;;;;;5126590;27;20031;-34
2023/12/20 09:02:43;;;;;;;1.98;1.50;;;21.50;40.00;;;;;;5118483;28;20054;-33
2023/12/20 09:05:09;;;;;;;2.95;1.67;;;21.50;40.00;;;;;;5122714;28;20115;-34
2023/12/20 09:07:36;;;;;;;2.42;1.70;;;21.40;40.10;;;;;;5123460;27;20031;-34
2023/12/20 09:10:02;;;;;;;2.33;1.75;;;21.30;40.30;;;;;;5112025;28;20379;-34
2023/12/20 09:12:28;;;;;;;2.30;1.77;;;21.50;40.10;;;;;;5119572;28;20024;-34
2023/12/20 09:14:55;;;;;;;2.08;1.60;;;21.70;39.70;;;;;;5112687;28;20302;-34
2023/12/20 09:17:22;;;;;;;1.48;1.00;;;21.90;39.60;;;;;;5116948;28;20048;-34
2023/12/20 09:19:49;;;;;;;2.72;1.70;;;21.70;39.70;;;;;;5116066;28;20034;-34
2023/12/20 09:22:15;;;;;;;2.38;1.85;;;21.60;39.90;;;;;;5095218;28;20486;-34
2023/12/20 09:24:41;;;;;;;2.92;2.10;;;21.50;40.20;;;;;;5113786;28;20030;-34
2023/12/20 09:27:07;;;;;;;2.60;1.92;;;21.50;40.20;;;;;;5117138;28;20350;-34
2023/12/20 09:29:33;;;;;;;2.30;1.60;;;21.50;40.00;;;;;;5117524;28;20365;-35
2023/12/20 09:31:59;;;;;;;1.88;1.60;;;21.50;39.90;;;;;;5118591;28;20023;-34
2023/12/20 09:34:26;;;;;;;2.50;1.80;;;21.40;39.90;;;;;;5117535;28;20028;-34
2023/12/20 09:36:53;;;;;;;2.97;1.75;;;21.30;40.10;;;;;;5122522;27;20046;-34
2023/12/20 09:39:20;;;;;;;1.67;1.38;;;21.30;40.50;;;;;;5110724;28;20039;-34
2023/12/20 09:41:49;;;;;;;;;;;21.40;40.30;;;;;;5114310;28;20023;-34
2023/12/20 09:44:19;;;;;;;2.15;1.73;;;21.60;39.90;;;;;;5094840;28;19908;-34
2023/12/20 09:46:48;;;;;;;4.25;1.88;;;21.70;39.80;;;;;;5115266;28;20056;-34
2023/12/20 09:49:14;;;;;;;2.33;1.73;;;21.70;39.90;;;;;;5092535;28;20044;-34
2023/12/20 09:51:41;;;;;;;2.40;1.80;;;21.50;39.90;;;;;;5110327;28;20515;-34
2023/12/20 09:54:07;;;;;;;3.35;1.92;;;21.50;40.30;;;;;;5111325;27;20046;-34
2023/12/20 09:56:33;;;;;;;2.25;1.70;;;21.50;40.10;;;;;;5113667;28;20387;-34
2023/12/20 09:59:00;;;;;;;2.00;1.55;;;21.50;40.10;;;;;;5132836;27;20024;-35
2023/12/20 10:01:26;;;;;;;2.42;1.65;;;21.50;40.10;;;;;;5119662;28;20058;-34
2023/12/20 10:03:52;;;;;;;2.30;1.80;;;21.40;40.20;;;;;;5122133;28;20039;-35
2023/12/20 10:06:18;;;;;;;2.67;1.70;;;21.20;40.30;;;;;;5103418;28;20031;-34
2023/12/20 10:08:44;;;;;;;2.45;1.67;;;21.20;40.50;;;;;;5122588;28;20111;-34
2023/12/20 10:11:10;;;;;;;2.10;1.60;;;21.30;40.20;;;;;;5122480;28;20031;-34
2023/12/20 10:13:43;;;;;;;2.28;1.80;;;21.60;39.80;;;;;;5121791;28;20027;-34
2023/12/20 10:16:09;;;;;;;2.00;1.60;;;21.70;39.70;;;;;;5120735;28;20088;-34
2023/12/20 10:18:36;;;;;;;2.15;1.80;;;21.60;39.90;;;;;;5121389;28;20105;-34
2023/12/20 10:21:03;;;;;;;2.30;1.77;;;21.40;40.20;;;;;;5121129;28;20044;-35
2023/12/20 10:23:30;;;;;;;2.90;1.80;;;21.40;40.70;;;;;;5121228;28;20075;-34
2023/12/20 10:26:00;;;;;;;2.83;2.03;;;21.40;40.40;;;;;;5103216;28;20046;-34
2023/12/20 10:28:29;;;;;;;2.35;1.60;;;21.40;40.30;;;;;;5120097;28;20120;-35
2023/12/20 10:30:58;;;;;;;2.28;1.90;;;21.40;40.30;;;;;;5121792;27;20023;-34
2023/12/20 10:33:34;;;;;;;1.92;1.73;;;21.20;40.30;;;;;;5116559;28;20038;-34
2023/12/20 10:36:01;;;;;;;2.83;1.83;;;21.10;40.50;;;;;;5113766;28;20042;-33
2023/12/20 10:38:29;;;;;;;3.00;1.75;;;21.30;40.40;;;;;;5110212;27;20028;-33
2023/12/20 10:40:57;;;;;;;2.22;1.50;;;21.50;39.90;;;;;;5107847;28;20031;-33
2023/12/20 10:43:26;;;;;;;1.90;1.55;;;21.80;39.60;;;;;;5109727;28;20099;-33
2023/12/20 10:45:52;;;;;;;1.50;1.40;;;21.70;39.70;;;;;;5107251;28;20099;-34
2023/12/20 10:48:19;;;;;;;2.35;1.77;;;21.50;39.90;;;;;;5107950;28;20039;-34
2023/12/20 10:50:45;;;;;;;2.95;2.08;;;21.40;40.30;;;;;;5114078;28;20104;-34
2023/12/20 10:53:12;;;;;;;3.28;1.75;;;21.40;40.30;;;;;;5112008;28;20048;-34
2023/12/20 10:55:38;;;;;;;1.80;1.70;;;21.40;40.20;;;;;;5095777;28;20036;-34
2023/12/20 10:58:13;;;;;;;2.05;1.75;;;21.40;40.10;;;;;;5109551;28;20032;-34
2023/12/20 11:00:43;;;;;;;2.60;1.90;;;21.40;40.00;;;;;;5129224;27;20023;-34
2023/12/20 11:03:10;;;;;;;2.00;1.50;;;21.20;40.20;;;;;;5094229;28;20027;-34
2023/12/20 11:05:58;;;;;;;2.88;1.85;;;21.10;40.30;;;;;;5111847;28;20035;-34
2023/12/20 11:08:45;;;;;;;2.63;1.30;;;21.30;40.20;;;;;;5097374;28;20042;-34
2023/12/20 11:11:15;;;;;;;2.40;1.60;;;21.60;39.70;;;;;;5083415;28;20039;-34
2023/12/20 11:13:48;;;;;;;2.25;1.80;;;21.80;39.40;;;;;;5111503;28;20027;-34
2023/12/20 11:16:14;;;;;;;2.40;1.90;;;21.70;39.60;;;;;;5124175;27;20050;-34
2023/12/20 11:18:41;;;;;;;2.28;1.65;;;21.50;39.90;;;;;;5109083;28;20777;-34
2023/12/20 11:21:07;;;;;;;2.10;1.70;;;21.40;40.00;;;;;;5115081;28;20035;-33
2023/12/20 11:23:34;;;;;;;1.83;1.55;;;21.40;40.40;;;;;;5113064;28;20035;-34
2023/12/20 11:26:00;;;;;;;2.00;1.70;;;21.40;40.20;;;;;;5109894;28;20035;-34
2023/12/20 11:28:26;;;;;;;1.98;1.52;;;21.40;40.10;;;;;;5096892;28;20034;-33
2023/12/20 11:30:59;;;;;;;1.87;1.50;;;21.40;40.10;;;;;;5122517;27;20110;-33
2023/12/20 11:33:48;;;;;;;2.55;1.80;;;21.20;40.20;;;;;;5116690;28;20430;-33
2023/12/20 11:36:15;;;;;;;2.63;1.83;;;21.10;40.30;;;;;;5096334;28;20039;-33
2023/12/20 11:39:05;;;;;;;;;;;21.30;40.00;;;;;;5110305;28;20036;-33
2023/12/20 11:41:32;;;;;;;1.85;1.65;;;21.50;39.70;;;;;;5111664;28;19923;-34
2023/12/20 11:43:58;;;;;;;1.98;1.33;;;21.70;39.70;;;;;;5090273;28;20057;-34
2023/12/20 11:46:24;;;;;;;2.58;1.80;;;21.70;39.70;;;;;;5087968;28;20066;-38
2023/12/20 11:48:50;;;;;;;2.28;1.55;;;21.70;39.70;;;;;;5087877;28;20864;-33
2023/12/20 11:51:16;;;;;;;1.80;1.42;;;21.80;39.60;;;;;;5101276;28;20024;-33
2023/12/20 11:53:42;;;;;;;1.90;1.58;;;21.80;39.60;;;;;;5093755;28;20043;-33
2023/12/20 11:56:09;;;;;;;1.90;1.40;;;21.90;39.50;;;;;;5093368;28;20047;-34
2023/12/20 11:58:35;;;;;;;2.05;1.65;;;21.90;39.50;;;;;;5087660;28;20048;-33
2023/12/20 12:01:07;;;;;;;2.43;1.70;;;21.80;39.40;;;;;;5091088;28;20028;-34
2023/12/20 12:03:33;;;;;;;2.75;1.70;;;21.70;39.60;;;;;;5087176;28;20088;-34
2023/12/20 12:06:00;;;;;;;2.65;1.63;;;21.60;40.00;;;;;;5091298;28;20031;-35
2023/12/20 12:08:26;;;;;;;4.05;1.83;;;21.60;40.10;;;;;;5095709;28;20027;-34
2023/12/20 12:10:52;;;;;;;1.60;1.50;;;21.60;40.00;;;;;;5097451;28;20039;-35
2023/12/20 12:13:19;;;;;;;2.13;1.70;;;21.70;39.90;;;;;;5085243;28;20119;-37
2023/12/20 12:15:45;;;;;;;3.85;1.98;;;21.60;39.90;;;;;;5086378;28;20103;-36
2023/12/20 12:18:11;;;;;;;1.83;1.45;;;21.50;40.10;;;;;;5090178;28;20016;-35
2023/12/20 12:20:37;;;;;;;1.95;1.33;;;21.40;40.70;;;;;;5095777;28;20028;-35
2023/12/20 12:23:04;;;;;;;1.73;1.10;;;21.50;40.40;;;;;;5087549;28;20024;-35
2023/12/20 12:25:31;;;;;;;2.08;1.60;;;21.70;39.90;;;;;;5090951;28;20024;-35
2023/12/20 12:28:00;;;;;;;2.42;1.75;;;21.90;39.50;;;;;;5089966;28;20032;-35
2023/12/20 12:30:27;;;;;;;2.22;1.80;;;21.80;39.60;;;;;;5101762;28;20039;-35
2023/12/20 12:32:53;;;;;;;2.33;1.80;;;21.70;39.70;;;;;;5092461;28;20074;-35
2023/12/20 12:35:19;;;;;;;3.05;1.65;;;21.60;40.00;;;;;;5093198;28;20112;-35
2023/12/20 12:37:46;;;;;;;2.58;1.75;;;21.50;40.00;;;;;;5101148;28;20063;-35
2023/12/20 12:40:13;;;;;;;1.70;1.60;;;21.60;39.90;;;;;;5096215;28;20037;-35
2023/12/20 12:42:40;;;;;;;2.40;1.80;;;21.60;39.70;;;;;;5092618;28;20039;-35
2023/12/20 12:45:07;;;;;;;2.53;1.73;;;21.50;39.70;;;;;;5096173;28;20106;-35
2023/12/20 12:47:33;;;;;;;2.22;1.70;;;21.40;39.80;;;;;;5093731;28;20542;-35